createdAt,value
2022-08-16T00:02:33.438Z,27.63
2022-08-16T00:05:01.337Z,27.42
2022-08-16T00:07:29.709Z,28.70
2022-08-16T00:09:58.950Z,28.85
2022-08-16T00:12:28.276Z,27.88
2022-08-16T00:14:56.734Z,29.25
2022-08-16T00:17:24.735Z,30.20
2022-08-16T00:19:54.969Z,30.40
2022-08-16T00:22:24.719Z,28.30
2022-08-16T00:24:54.223Z,28.17
2022-08-16T00:27:22.563Z,29.27
2022-08-16T00:30:08.892Z,29.48
2022-08-16T00:32:39.774Z,28.02
2022-08-16T00:35:15.420Z,29.17
2022-08-16T00:37:57.351Z,27.58
2022-08-16T00:40:43.598Z,27.80
2022-08-16T00:43:22.402Z,29.02
2022-08-16T00:46:00.810Z,28.05
2022-08-16T00:48:31.896Z,30.23
2022-08-16T00:51:15.977Z,29.92
2022-08-16T00:53:44.909Z,30.38
2022-08-16T00:56:56.601Z,31.45
2022-08-16T00:59:06.233Z,33.97
2022-08-16T01:01:33.261Z,35.58
2022-08-16T01:04:05.330Z,33.63
2022-08-16T01:06:48.899Z,34.05
2022-08-16T01:09:18.373Z,34.22
2022-08-16T01:11:54.099Z,33.35
2022-08-16T01:14:29.821Z,34.33
2022-08-16T01:16:59.905Z,33.50
2022-08-16T01:19:36.041Z,34.50
2022-08-16T01:22:47.163Z,36.67
2022-08-16T01:25:12.964Z,32.42
2022-08-16T01:27:46.901Z,33.33
2022-08-16T01:30:20.109Z,32.58
2022-08-16T01:33:01.369Z,33.50
2022-08-16T01:35:52.787Z,33.05
2022-08-16T01:38:29.114Z,32.75
2022-08-16T01:41:07.485Z,32.22
2022-08-16T01:43:38.270Z,34.33
2022-08-16T01:46:39.731Z,33.45
2022-08-16T01:50:40.764Z,35.20
2022-08-16T01:52:27.683Z,38.05
2022-08-16T01:55:09.704Z,33.78
2022-08-16T01:57:38.394Z,35.15
2022-08-16T02:00:18.935Z,35.35
2022-08-16T02:02:52.122Z,35.22
2022-08-16T02:05:21.281Z,35.55
2022-08-16T02:07:51.833Z,36.08
2022-08-16T02:10:19.837Z,37.88
2022-08-16T02:12:51.198Z,36.17
2022-08-16T02:15:24.810Z,34.72
2022-08-16T02:17:56.263Z,37.10
2022-08-16T02:20:26.475Z,39.45
2022-08-16T02:22:59.583Z,39.50
2022-08-16T02:25:52.444Z,40.20
2022-08-16T02:28:17.369Z,38.50
2022-08-16T02:30:50.654Z,39.08
2022-08-16T02:33:18.807Z,39.30
2022-08-16T02:35:53.712Z,39.97
2022-08-16T02:38:25.824Z,40.53
2022-08-16T02:40:54.986Z,43.08
2022-08-16T02:43:27.719Z,43.42
2022-08-16T02:45:58.994Z,43.58
2022-08-16T02:48:31.092Z,42.67
2022-08-16T02:51:10.444Z,42.88
2022-08-16T02:53:44.826Z,40.90
2022-08-16T02:56:15.096Z,43.88
2022-08-16T02:58:47.668Z,44.72
2022-08-16T03:01:24.890Z,43.63
2022-08-16T03:04:39.639Z,40.17
2022-08-16T03:06:56.446Z,44.63
2022-08-16T03:09:40.776Z,43.55
2022-08-16T03:12:11.590Z,43.17
2022-08-16T03:14:44.126Z,43.92
2022-08-16T03:17:11.358Z,41.15
2022-08-16T03:19:46.914Z,42.85
2022-08-16T03:22:28.844Z,42.95
2022-08-16T03:25:05.279Z,42.65
2022-08-16T03:27:39.163Z,43.47
2022-08-16T03:30:21.057Z,45.97
2022-08-16T03:32:52.882Z,43.70
2022-08-16T03:35:33.157Z,43.05
2022-08-16T03:38:34.520Z,43.30
2022-08-16T03:40:56.333Z,45.10
2022-08-16T03:43:50.762Z,44.45
2022-08-16T03:46:44.189Z,46.28
2022-08-16T03:49:05.050Z,45.35
2022-08-16T03:51:34.588Z,46.30
2022-08-16T03:54:12.641Z,45.22
2022-08-16T03:56:57.798Z,44.85
2022-08-16T03:59:30.286Z,46.85
2022-08-16T04:02:19.082Z,45.05
2022-08-16T04:04:51.886Z,45.75
2022-08-16T04:07:19.063Z,45.03
2022-08-16T04:09:47.381Z,45.05
2022-08-16T04:12:53.504Z,44.42
2022-08-16T04:15:03.229Z,44.63
2022-08-16T04:17:37.651Z,46.03
2022-08-16T04:20:23.209Z,44.35
2022-08-16T04:22:57.643Z,43.53
2022-08-16T04:25:29.150Z,44.45
2022-08-16T04:27:56.970Z,42.90
2022-08-16T04:30:34.836Z,44.80
2022-08-16T04:33:04.483Z,43.70
2022-08-16T04:35:34.917Z,44.17
2022-08-16T04:38:11.114Z,43.75
2022-08-16T04:40:48.114Z,42.72
2022-08-16T04:43:17.925Z,42.58
2022-08-16T04:45:45.864Z,42.50
2022-08-16T04:48:22.003Z,42.00
2022-08-16T04:51:00.448Z,42.35
2022-08-16T04:53:37.232Z,41.67
2022-08-16T04:56:11.654Z,40.95
2022-08-16T04:58:45.739Z,41.22
2022-08-16T05:01:15.231Z,40.90
2022-08-16T05:04:00.908Z,39.83
2022-08-16T05:06:44.975Z,41.03
2022-08-16T05:09:36.307Z,39.83
2022-08-16T05:12:04.810Z,42.67
2022-08-16T05:14:46.131Z,41.97
2022-08-16T05:17:20.061Z,39.92
2022-08-16T05:19:58.093Z,42.03
2022-08-16T05:22:32.854Z,38.75
2022-08-16T05:25:08.998Z,39.75
2022-08-16T05:27:42.637Z,38.65
2022-08-16T05:30:36.831Z,40.47
2022-08-16T05:33:04.716Z,37.30
2022-08-16T05:35:32.911Z,38.00
2022-08-16T05:38:32.286Z,37.00
2022-08-16T05:41:03.097Z,38.47
2022-08-16T05:43:43.273Z,35.53
2022-08-16T05:46:28.625Z,36.20
2022-08-16T05:49:09.048Z,37.15
2022-08-16T05:51:40.217Z,36.45
2022-08-16T05:54:13.934Z,36.60
2022-08-16T05:56:42.982Z,35.63
2022-08-16T05:59:11.026Z,35.83
2022-08-16T06:01:39.712Z,33.20
2022-08-16T06:04:13.541Z,35.22
2022-08-16T06:06:57.434Z,34.47
2022-08-16T06:09:42.591Z,36.35
2022-08-16T06:12:12.068Z,33.05
2022-08-16T06:14:39.987Z,34.95
2022-08-16T06:17:08.186Z,33.28
2022-08-16T06:19:35.764Z,35.10
2022-08-16T06:22:11.570Z,35.20
2022-08-16T06:24:59.255Z,35.08
2022-08-16T06:27:27.788Z,34.85
2022-08-16T06:30:09.939Z,33.60
2022-08-16T06:32:43.202Z,32.35
2022-08-16T06:35:17.532Z,32.05
2022-08-16T06:37:51.455Z,30.63
2022-08-16T06:40:19.734Z,30.88
2022-08-16T06:42:57.623Z,31.33
2022-08-16T06:45:48.988Z,30.38
2022-08-16T06:48:33.058Z,32.08
2022-08-16T06:51:06.554Z,30.48
2022-08-16T06:53:36.722Z,32.20
2022-08-16T06:56:14.176Z,30.77
2022-08-16T06:59:04.836Z,30.88
2022-08-16T07:01:45.085Z,28.13
2022-08-16T07:04:31.486Z,27.33
2022-08-16T07:07:03.010Z,27.42
2022-08-16T07:09:30.752Z,27.30
2022-08-16T07:12:03.678Z,27.60
2022-08-16T07:14:35.107Z,27.88
2022-08-16T07:17:08.013Z,26.33
2022-08-16T07:20:03.531Z,26.02
2022-08-16T07:22:39.161Z,26.85
2022-08-16T07:25:16.790Z,26.30
2022-08-16T07:27:44.654Z,25.73
2022-08-16T07:30:39.862Z,25.67
2022-08-16T07:33:07.110Z,23.05
2022-08-16T07:35:36.927Z,22.80
2022-08-16T07:38:13.791Z,24.20
2022-08-16T07:41:00.323Z,22.60
2022-08-16T07:43:29.753Z,22.00
2022-08-16T07:46:01.269Z,21.30
2022-08-16T07:48:30.999Z,20.80
2022-08-16T07:50:59.753Z,20.67
2022-08-16T07:53:33.905Z,21.27
2022-08-16T07:56:10.605Z,20.08
2022-08-16T07:58:39.696Z,19.48
2022-08-16T08:01:14.943Z,20.65
2022-08-16T08:03:50.353Z,20.90
2022-08-16T08:06:32.415Z,20.10
2022-08-16T08:09:05.462Z,21.73
2022-08-16T08:11:33.444Z,21.25
2022-08-16T08:14:07.376Z,21.83
2022-08-16T08:16:45.178Z,19.27
2022-08-16T08:19:20.966Z,20.95
2022-08-16T08:21:59.667Z,19.80
2022-08-16T08:24:46.875Z,21.23
2022-08-16T08:27:22.826Z,20.65
2022-08-16T08:30:49.448Z,21.40
2022-08-16T08:33:02.258Z,22.05
2022-08-16T08:35:27.063Z,20.20
2022-08-16T08:37:56.517Z,21.13
2022-08-16T08:40:28.240Z,22.02
2022-08-16T08:43:00.858Z,21.13
2022-08-16T08:45:52.751Z,19.45
2022-08-16T08:48:34.342Z,21.15
2022-08-16T08:51:12.083Z,20.10
2022-08-16T08:53:57.768Z,20.90
2022-08-16T08:56:32.208Z,20.80
2022-08-16T08:59:20.281Z,21.90
2022-08-16T09:01:57.543Z,21.45
2022-08-16T09:04:29.048Z,21.73
2022-08-16T09:06:58.552Z,23.15
2022-08-16T09:09:33.469Z,21.15
2022-08-16T09:12:06.382Z,23.13
2022-08-16T09:14:49.586Z,23.83
2022-08-16T09:17:45.478Z,21.45
2022-08-16T09:20:13.587Z,21.92
2022-08-16T09:22:41.794Z,21.95
2022-08-16T09:25:12.333Z,22.08
2022-08-16T09:27:57.186Z,22.50
2022-08-16T09:30:33.724Z,23.23
2022-08-16T09:33:02.517Z,21.88
2022-08-16T09:35:34.018Z,22.55
2022-08-16T09:38:08.430Z,23.40
2022-08-16T09:40:42.802Z,22.08
2022-08-16T09:43:46.468Z,20.75
2022-08-16T09:45:59.212Z,22.13
2022-08-16T09:48:44.272Z,21.40
2022-08-16T09:51:15.570Z,20.98
2022-08-16T09:53:43.173Z,21.45
2022-08-16T09:56:26.586Z,20.75
2022-08-16T09:59:03.455Z,20.30
2022-08-16T10:01:33.368Z,20.02
2022-08-16T10:04:01.896Z,19.33
2022-08-16T10:06:33.594Z,19.13
2022-08-16T10:09:10.609Z,17.73
2022-08-16T10:12:11.529Z,17.52
2022-08-16T10:14:46.362Z,19.35
2022-08-16T10:17:13.762Z,19.02
2022-08-16T10:19:41.693Z,18.98
2022-08-16T10:22:12.687Z,19.67
2022-08-16T10:24:56.141Z,19.77
2022-08-16T10:27:45.893Z,19.65
2022-08-16T10:30:25.055Z,20.40
2022-08-16T10:32:53.737Z,20.30
2022-08-16T10:35:20.703Z,20.55
2022-08-16T10:37:52.227Z,19.67
2022-08-16T10:40:30.169Z,19.42
2022-08-16T10:43:00.890Z,20.33
2022-08-16T10:45:36.696Z,20.60
2022-08-16T10:48:27.579Z,20.65
2022-08-16T10:50:58.112Z,20.52
2022-08-16T10:53:33.114Z,20.95
2022-08-16T10:56:03.240Z,21.20
2022-08-16T10:58:34.307Z,22.27
2022-08-16T11:03:57.403Z,20.73
2022-08-16T11:06:26.714Z,21.88
2022-08-16T11:14:33.352Z,22.00
2022-08-16T11:17:10.544Z,22.40
2022-08-16T11:22:41.853Z,21.77
2022-08-16T11:28:08.226Z,23.17
2022-08-16T11:30:39.180Z,21.92
2022-08-16T11:33:07.860Z,21.83
2022-08-16T11:35:44.309Z,20.95
2022-08-16T11:38:46.286Z,20.92
2022-08-16T11:41:03.495Z,21.80
2022-08-16T11:43:33.825Z,21.35
2022-08-16T11:46:44.299Z,19.48
2022-08-16T11:48:51.753Z,20.95
2022-08-16T11:51:18.752Z,21.42
2022-08-16T11:53:46.243Z,18.88
2022-08-16T11:56:14.770Z,19.63
2022-08-16T11:58:42.509Z,20.15
2022-08-16T12:01:18.749Z,20.83
2022-08-16T12:03:57.006Z,21.63
2022-08-16T12:06:25.332Z,21.15
2022-08-16T12:08:57.546Z,20.98
2022-08-16T12:11:28.176Z,21.50
2022-08-16T12:14:04.572Z,19.20
2022-08-16T12:16:34.312Z,19.27
2022-08-16T12:19:07.396Z,19.67
2022-08-16T12:21:59.169Z,19.73
2022-08-16T12:24:25.506Z,18.95
2022-08-16T12:26:54.136Z,20.52
2022-08-16T12:29:22.243Z,19.58
2022-08-16T12:32:01.382Z,18.95
2022-08-16T12:34:36.872Z,18.25
2022-08-16T12:37:08.935Z,20.38
2022-08-16T12:39:37.327Z,20.45
2022-08-16T12:42:04.204Z,21.17
2022-08-16T12:44:31.597Z,20.08
2022-08-16T12:47:17.613Z,22.02
2022-08-16T12:49:45.253Z,20.10
2022-08-16T12:52:33.244Z,21.45
2022-08-16T12:55:00.439Z,20.98
2022-08-16T12:57:36.404Z,21.73
2022-08-16T13:00:13.093Z,21.55
2022-08-16T13:02:54.087Z,20.92
2022-08-16T13:05:21.694Z,21.92
2022-08-16T13:07:51.704Z,23.40
2022-08-16T13:10:36.769Z,23.42
2022-08-16T13:13:06.063Z,22.73
2022-08-16T13:15:36.183Z,22.98
2022-08-16T13:18:26.802Z,21.40
2022-08-16T13:20:59.548Z,19.45
2022-08-16T13:23:26.576Z,20.48
2022-08-16T13:25:54.796Z,20.02
2022-08-16T13:28:22.074Z,19.00
2022-08-16T13:30:52.617Z,18.90
2022-08-16T13:33:29.255Z,16.83
2022-08-16T13:35:59.766Z,21.85
2022-08-16T13:38:36.759Z,25.23
2022-08-16T13:41:08.746Z,28.67
2022-08-16T13:43:37.818Z,26.65
2022-08-16T13:46:05.570Z,25.55
2022-08-16T13:48:42.933Z,24.80
2022-08-16T13:51:19.050Z,25.20
2022-08-16T13:53:49.495Z,22.52
2022-08-16T13:56:25.288Z,22.88
2022-08-16T13:58:54.327Z,24.85
2022-08-16T14:01:22.553Z,25.33
2022-08-16T14:03:50.413Z,23.33
2022-08-16T14:06:21.655Z,28.08
2022-08-16T14:08:58.728Z,25.63
2022-08-16T14:11:26.769Z,25.95
2022-08-16T14:13:56.252Z,23.30
2022-08-16T14:16:33.695Z,26.27
2022-08-16T14:19:02.337Z,25.25
2022-08-16T14:21:35.408Z,23.42
2022-08-16T14:24:07.961Z,24.60
2022-08-16T14:26:50.057Z,25.30
2022-08-16T14:31:53.623Z,24.60
2022-08-16T14:34:21.627Z,22.23
2022-08-16T14:36:53.173Z,23.02
2022-08-16T14:39:22.164Z,22.13
2022-08-16T14:41:49.834Z,23.65
2022-08-16T14:44:20.644Z,23.52
2022-08-16T14:46:47.555Z,22.75
2022-08-16T14:49:14.562Z,21.55
2022-08-16T14:51:46.046Z,22.35
2022-08-16T14:54:15.096Z,23.25
2022-08-16T14:56:54.417Z,19.05
2022-08-16T14:59:22.934Z,21.45
2022-08-16T15:01:59.876Z,21.33
2022-08-16T15:04:40.183Z,21.17
2022-08-16T15:07:16.140Z,21.02
2022-08-16T15:10:00.089Z,23.02
2022-08-16T15:12:33.354Z,20.80
2022-08-16T15:15:04.482Z,23.30
2022-08-16T15:17:40.737Z,23.15
2022-08-16T15:20:09.262Z,22.50
2022-08-16T15:22:41.272Z,22.23
2022-08-16T15:25:14.564Z,22.55
2022-08-16T15:27:43.565Z,24.00
2022-08-16T15:30:57.646Z,21.85
2022-08-16T15:33:13.612Z,20.63
2022-08-16T15:35:42.600Z,21.13
2022-08-16T15:38:10.657Z,22.73
2022-08-16T15:40:59.115Z,20.73
2022-08-16T15:43:39.054Z,19.67
2022-08-16T15:46:35.196Z,20.02
2022-08-16T15:49:12.357Z,22.30
2022-08-16T15:51:41.180Z,20.67
2022-08-16T15:54:21.619Z,24.02
2022-08-16T15:57:04.266Z,24.77
2022-08-16T15:59:49.457Z,21.90
2022-08-16T16:02:27.665Z,24.00
2022-08-16T16:04:56.640Z,25.30
2022-08-16T16:07:23.711Z,23.10
2022-08-16T16:09:53.343Z,21.17
2022-08-16T16:12:53.794Z,22.08
2022-08-16T16:15:07.794Z,24.95
2022-08-16T16:17:35.606Z,23.30
2022-08-16T16:20:05.091Z,22.92
2022-08-16T16:22:35.094Z,22.48
2022-08-16T16:25:01.940Z,21.10
2022-08-16T16:27:28.785Z,23.15
2022-08-16T16:29:58.054Z,22.65
2022-08-16T16:32:34.636Z,22.95
2022-08-16T16:35:03.271Z,25.27
2022-08-16T16:37:32.465Z,24.05
2022-08-16T16:40:00.218Z,24.30
2022-08-16T16:42:30.352Z,21.65
2022-08-16T16:45:01.703Z,22.23
2022-08-16T16:47:30.757Z,23.13
2022-08-16T16:50:09.591Z,23.13
2022-08-16T16:52:44.753Z,23.77
2022-08-16T16:55:14.752Z,22.35
2022-08-16T16:58:01.237Z,23.45
2022-08-16T17:00:38.490Z,24.63
2022-08-16T17:03:16.847Z,24.55
2022-08-16T17:05:51.006Z,23.70
2022-08-16T17:08:25.662Z,26.90
2022-08-16T17:10:54.581Z,25.25
2022-08-16T17:13:23.151Z,24.02
2022-08-16T17:15:52.453Z,21.33
2022-08-16T17:19:15.174Z,23.38
2022-08-16T17:21:08.637Z,24.52
2022-08-16T17:23:58.780Z,23.95
2022-08-16T17:26:30.180Z,27.00
2022-08-16T17:29:10.897Z,22.98
2022-08-16T17:31:40.942Z,24.13
2022-08-16T17:37:05.015Z,19.88
2022-08-16T17:39:27.205Z,21.15
2022-08-16T17:39:35.545Z,21.20
2022-08-16T17:42:24.425Z,22.90
2022-08-16T17:44:54.642Z,22.27
2022-08-16T17:47:22.651Z,21.67
2022-08-16T17:49:49.703Z,27.58
2022-08-16T17:52:17.374Z,23.15
2022-08-16T17:54:45.102Z,25.17
2022-08-16T17:57:12.474Z,30.13
2022-08-16T17:59:41.271Z,31.95
2022-08-16T18:02:42.302Z,28.33
2022-08-16T18:04:56.512Z,30.60
2022-08-16T18:07:23.388Z,31.02
2022-08-16T18:09:50.590Z,27.55
2022-08-16T18:12:33.986Z,29.45
2022-08-16T18:15:14.537Z,27.60
2022-08-16T18:17:41.995Z,27.65
2022-08-16T18:20:30.812Z,28.30
2022-08-16T18:23:08.352Z,27.67
2022-08-16T18:25:36.317Z,25.90
2022-08-16T18:28:03.932Z,26.02
2022-08-16T18:30:30.775Z,22.63
2022-08-16T18:32:57.568Z,21.42
2022-08-16T18:35:24.578Z,24.52
2022-08-16T18:37:51.546Z,24.75
2022-08-16T18:40:18.866Z,23.10
2022-08-16T18:43:00.785Z,24.90
2022-08-16T18:45:35.246Z,26.75
2022-08-16T18:48:05.073Z,29.00
2022-08-16T18:50:59.632Z,28.88
2022-08-16T18:53:20.487Z,33.42
2022-08-16T18:55:48.397Z,28.90
2022-08-16T18:58:16.146Z,30.42
2022-08-16T19:00:56.485Z,29.30
2022-08-16T19:03:27.410Z,30.88
2022-08-16T19:06:04.479Z,29.95
2022-08-16T19:08:32.350Z,29.20
2022-08-16T19:10:59.182Z,29.88
2022-08-16T19:13:28.311Z,31.90
2022-08-16T19:15:58.762Z,32.30
2022-08-16T19:18:27.432Z,29.73
2022-08-16T19:20:59.259Z,32.30
2022-08-16T19:23:29.760Z,31.48
2022-08-16T19:26:04.944Z,33.80
2022-08-16T19:28:51.581Z,33.60
2022-08-16T19:31:26.126Z,33.28
2022-08-16T19:33:56.464Z,31.50
2022-08-16T19:36:35.772Z,35.47
2022-08-16T19:39:13.794Z,33.15
2022-08-16T19:41:46.448Z,33.63
2022-08-16T19:44:22.339Z,31.85
2022-08-16T19:46:49.718Z,32.42
2022-08-16T19:49:17.069Z,33.83
2022-08-16T19:51:47.759Z,30.25
2022-08-16T19:54:15.031Z,32.42
2022-08-16T19:56:41.940Z,34.30
2022-08-16T19:59:39.248Z,34.15
2022-08-16T20:01:55.646Z,32.92
2022-08-16T20:04:23.962Z,31.67
2022-08-16T20:06:52.547Z,32.13
2022-08-16T20:09:22.952Z,34.03
2022-08-16T20:11:52.234Z,29.88
2022-08-16T20:14:26.047Z,29.75
2022-08-16T20:16:58.332Z,30.67
2022-08-16T20:19:33.409Z,29.25
2022-08-16T20:22:42.120Z,31.92
2022-08-16T20:25:11.173Z,32.08
2022-08-16T20:27:38.686Z,31.27
2022-08-16T20:30:06.783Z,32.10
2022-08-16T20:32:36.489Z,31.67
2022-08-16T20:35:05.328Z,30.55
2022-08-16T20:37:33.247Z,29.98
2022-08-16T20:40:28.277Z,30.58
2022-08-16T20:43:02.963Z,32.25
2022-08-16T20:45:30.159Z,30.77
2022-08-16T20:47:57.107Z,32.85
2022-08-16T20:50:24.560Z,32.17
2022-08-16T20:52:51.953Z,32.78
2022-08-16T20:55:20.129Z,33.30
2022-08-16T20:57:47.059Z,32.97
2022-08-16T21:00:14.380Z,31.25
2022-08-16T21:02:41.393Z,32.05
2022-08-16T21:05:10.158Z,33.15
2022-08-16T21:07:37.320Z,31.98
2022-08-16T21:10:05.661Z,31.75
2022-08-16T21:12:34.733Z,32.95
2022-08-16T21:15:08.251Z,30.30
2022-08-16T21:17:35.070Z,33.13
2022-08-16T21:20:01.974Z,35.22
2022-08-16T21:22:28.917Z,36.38
2022-08-16T21:24:56.927Z,37.40
2022-08-16T21:27:26.184Z,34.83
2022-08-16T21:29:55.779Z,34.65
2022-08-16T21:32:35.873Z,38.00
2022-08-16T21:35:12.810Z,38.05
2022-08-16T21:37:39.897Z,39.72
2022-08-16T21:40:09.031Z,35.85
2022-08-16T21:42:37.430Z,37.80
2022-08-16T21:45:05.021Z,39.92
2022-08-16T21:47:31.820Z,38.47
2022-08-16T21:49:58.788Z,36.42
2022-08-16T21:52:26.184Z,36.42
2022-08-16T21:54:56.382Z,38.33
2022-08-16T21:57:23.909Z,37.72
2022-08-16T21:59:54.266Z,40.75
2022-08-16T22:02:23.197Z,36.80
2022-08-16T22:04:50.093Z,36.53
2022-08-16T22:07:18.096Z,36.03
2022-08-16T22:09:46.653Z,35.30
2022-08-16T22:12:24.099Z,35.30
2022-08-16T22:14:51.328Z,35.42
2022-08-16T22:17:18.738Z,36.10
2022-08-16T22:19:45.825Z,32.47
2022-08-16T22:22:12.729Z,36.40
2022-08-16T22:24:39.607Z,36.40
2022-08-16T22:27:06.627Z,35.58
2022-08-16T22:29:33.790Z,35.28
2022-08-16T22:32:03.292Z,32.65
2022-08-16T22:34:31.428Z,33.17
2022-08-16T22:36:58.875Z,34.45
2022-08-16T22:39:25.877Z,34.03
2022-08-16T22:41:53.141Z,36.25
2022-08-16T22:44:20.545Z,34.95
2022-08-16T22:46:47.486Z,36.17
2022-08-16T22:49:14.463Z,34.40
2022-08-16T22:51:41.825Z,34.63
2022-08-16T22:54:44.032Z,35.17
2022-08-16T22:56:57.376Z,37.63
2022-08-16T22:59:25.220Z,36.22
2022-08-16T23:01:52.615Z,40.95
2022-08-16T23:04:19.560Z,37.67
2022-08-16T23:06:46.445Z,37.30
2022-08-16T23:09:13.270Z,37.08
2022-08-16T23:11:40.576Z,37.33
2022-08-16T23:14:09.496Z,36.55
2022-08-16T23:16:36.375Z,35.80
2022-08-16T23:19:07.207Z,39.25
2022-08-16T23:21:35.215Z,34.95
2022-08-16T23:24:03.035Z,36.67
2022-08-16T23:26:46.030Z,34.72
2022-08-16T23:29:24.501Z,37.50
2022-08-16T23:32:10.763Z,37.60
2022-08-16T23:34:37.617Z,39.28
2022-08-16T23:37:06.545Z,37.83
2022-08-16T23:39:33.513Z,38.70
2022-08-16T23:42:00.745Z,38.65
2022-08-16T23:44:56.046Z,41.17
2022-08-16T23:47:14.361Z,40.78
2022-08-16T23:49:55.983Z,45.58
2022-08-16T23:52:42.204Z,48.60
2022-08-16T23:55:16.910Z,44.55
2022-08-16T23:57:44.859Z,39.40
